createdAt,value
2023-04-04T00:00:26.161Z,4.68
2023-04-04T00:02:52.834Z,4.60
2023-04-04T00:05:19.772Z,4.80
2023-04-04T00:07:49.921Z,4.07
2023-04-04T00:10:17.019Z,4.70
2023-04-04T00:12:44.093Z,4.00
2023-04-04T00:15:11.202Z,3.90
2023-04-04T00:17:37.859Z,3.20
2023-04-04T00:20:04.895Z,2.70
2023-04-04T00:22:31.644Z,2.65
2023-04-04T00:24:59.167Z,1.48
2023-04-04T00:27:26.317Z,2.00
2023-04-04T00:29:53.365Z,1.95
2023-04-04T00:32:20.176Z,2.17
2023-04-04T00:34:46.836Z,2.50
2023-04-04T00:37:13.455Z,2.08
2023-04-04T00:39:40.166Z,2.13
2023-04-04T00:42:07.380Z,10.18
2023-04-04T00:44:36.487Z,5.15
2023-04-04T00:47:04.447Z,4.68
2023-04-04T00:49:31.255Z,6.50
2023-04-04T00:51:58.069Z,9.48
2023-04-04T00:54:25.235Z,5.75
2023-04-04T00:56:55.583Z,9.10
2023-04-04T00:59:27.907Z,7.43
2023-04-04T01:01:55.039Z,3.35
2023-04-04T01:04:22.071Z,2.47
2023-04-04T01:06:49.897Z,2.50
2023-04-04T01:09:16.797Z,1.40
2023-04-04T01:11:44.503Z,1.73
2023-04-04T01:14:11.378Z,2.45
2023-04-04T01:16:38.946Z,2.08
2023-04-04T01:19:09.862Z,2.50
2023-04-04T01:21:37.540Z,3.05
2023-04-04T01:24:05.026Z,3.13
2023-04-04T01:26:32.050Z,3.13
2023-04-04T01:28:59.667Z,2.67
2023-04-04T01:31:29.589Z,3.00
2023-04-04T01:34:23.616Z,2.70
2023-04-04T01:37:03.870Z,2.15
2023-04-04T01:39:37.036Z,1.20
2023-04-04T01:42:04.110Z,4.10
2023-04-04T01:44:30.980Z,4.05
2023-04-04T01:46:57.588Z,7.07
2023-04-04T01:49:24.259Z,6.57
2023-04-04T01:51:55.300Z,5.45
2023-04-04T01:54:22.560Z,1.23
2023-04-04T01:56:49.127Z,1.08
2023-04-04T01:59:15.776Z,0.50
2023-04-04T02:01:43.824Z,0.50
2023-04-04T02:04:12.583Z,0.40
2023-04-04T02:06:40.427Z,0.40
2023-04-04T02:09:07.002Z,0.30
2023-04-04T02:11:33.848Z,0.50
2023-04-04T02:14:00.491Z,0.60
2023-04-04T02:16:27.116Z,0.47
2023-04-04T02:18:53.686Z,0.60
2023-04-04T02:21:20.338Z,0.70
2023-04-04T02:23:46.904Z,0.63
2023-04-04T02:26:13.588Z,0.70
2023-04-04T02:28:40.110Z,0.60
2023-04-04T02:31:07.352Z,0.50
2023-04-04T02:33:33.954Z,0.52
2023-04-04T02:36:00.649Z,0.40
2023-04-04T02:38:27.516Z,0.70
2023-04-04T02:40:54.143Z,2.25
2023-04-04T02:43:21.115Z,1.42
2023-04-04T02:45:49.153Z,4.15
2023-04-04T02:48:15.931Z,3.40
2023-04-04T02:50:42.910Z,3.70
2023-04-04T02:53:09.903Z,1.10
2023-04-04T02:55:36.731Z,3.40
2023-04-04T02:58:03.275Z,0.40
2023-04-04T03:00:29.988Z,0.70
2023-04-04T03:02:57.990Z,0.20
2023-04-04T03:05:26.954Z,0.30
2023-04-04T03:07:57.841Z,0.20
2023-04-04T03:10:26.291Z,0.80
2023-04-04T03:12:53.353Z,1.23
2023-04-04T03:15:19.937Z,2.47
2023-04-04T03:17:46.942Z,0.60
2023-04-04T03:20:15.186Z,0.30
2023-04-04T03:22:42.436Z,0.10
2023-04-04T03:25:09.945Z,0.20
2023-04-04T03:27:36.580Z,0.20
2023-04-04T03:30:04.026Z,0.20
2023-04-04T03:32:30.734Z,0.20
2023-04-04T03:34:57.446Z,0.20
2023-04-04T03:37:24.499Z,0.30
2023-04-04T03:39:51.344Z,0.30
2023-04-04T03:42:17.957Z,1.10
2023-04-04T03:44:44.526Z,6.72
2023-04-04T03:47:11.138Z,6.05
2023-04-04T03:49:37.712Z,4.53
2023-04-04T03:52:04.498Z,4.78
2023-04-04T03:54:31.253Z,4.35
2023-04-04T03:56:58.097Z,4.38
2023-04-04T03:59:25.131Z,1.40
2023-04-04T04:01:52.400Z,1.45
2023-04-04T04:04:18.962Z,2.58
2023-04-04T04:06:45.697Z,1.30
2023-04-04T04:09:15.057Z,1.55
2023-04-04T04:11:41.868Z,1.60
2023-04-04T04:14:08.574Z,2.72
2023-04-04T04:16:35.332Z,3.40
2023-04-04T04:19:02.493Z,5.15
2023-04-04T04:21:29.015Z,4.00
2023-04-04T04:23:55.560Z,4.30
2023-04-04T04:26:22.210Z,6.05
2023-04-04T04:28:49.185Z,7.15
2023-04-04T04:31:15.798Z,7.63
2023-04-04T04:33:42.386Z,8.63
2023-04-04T04:36:09.162Z,10.07
2023-04-04T04:38:35.806Z,8.70
2023-04-04T04:41:02.721Z,9.15
2023-04-04T04:43:29.332Z,8.95
2023-04-04T04:45:55.959Z,10.02
2023-04-04T04:48:22.871Z,10.50
2023-04-04T04:50:49.471Z,10.95
2023-04-04T04:53:16.185Z,12.43
2023-04-04T04:55:46.729Z,14.10
2023-04-04T04:58:13.938Z,12.82
2023-04-04T05:00:41.525Z,13.80
2023-04-04T05:03:08.441Z,13.02
2023-04-04T05:05:35.427Z,13.07
2023-04-04T05:08:03.020Z,13.77
2023-04-04T05:10:30.644Z,11.75
2023-04-04T05:12:57.927Z,14.43
2023-04-04T05:15:29.347Z,14.90
2023-04-04T05:17:56.034Z,15.43
2023-04-04T05:20:23.495Z,15.50
2023-04-04T05:22:51.534Z,14.00
2023-04-04T05:25:18.983Z,14.82
2023-04-04T05:27:49.236Z,12.10
2023-04-04T05:30:16.980Z,11.73
2023-04-04T05:32:47.060Z,11.55
2023-04-04T05:35:13.721Z,12.52
2023-04-04T05:37:41.068Z,13.93
2023-04-04T05:40:08.388Z,12.35
2023-04-04T05:42:35.248Z,11.50
2023-04-04T05:45:01.917Z,9.88
2023-04-04T05:47:28.561Z,8.65
2023-04-04T05:49:55.248Z,9.55
2023-04-04T05:52:21.976Z,7.88
2023-04-04T05:54:48.565Z,7.38
2023-04-04T05:57:15.236Z,8.35
2023-04-04T05:59:42.145Z,8.93
2023-04-04T06:02:08.873Z,8.57
2023-04-04T06:04:35.581Z,8.18
2023-04-04T06:07:02.622Z,6.68
2023-04-04T06:09:29.227Z,5.05
2023-04-04T06:11:56.416Z,6.32
2023-04-04T06:14:23.008Z,6.13
2023-04-04T06:16:49.735Z,5.30
2023-04-04T06:19:17.017Z,6.90
2023-04-04T06:21:43.572Z,7.97
2023-04-04T06:24:10.485Z,6.63
2023-04-04T06:26:37.831Z,6.22
2023-04-04T06:29:04.860Z,6.53
2023-04-04T06:31:31.587Z,0.57
2023-04-04T06:33:58.553Z,0.20
2023-04-04T06:36:25.306Z,0.20
2023-04-04T06:38:51.870Z,0.20
2023-04-04T06:41:18.694Z,0.20
2023-04-04T06:43:47.043Z,0.10
2023-04-04T06:46:13.662Z,0.10
2023-04-04T06:48:40.262Z,0.10
2023-04-04T06:51:08.148Z,0.10
2023-04-04T06:53:36.061Z,0.00
2023-04-04T06:56:02.704Z,0.10
2023-04-04T06:58:29.231Z,0.00
2023-04-04T07:00:57.218Z,0.10
2023-04-04T07:03:24.497Z,0.10
2023-04-04T07:05:51.327Z,0.00
2023-04-04T07:08:17.892Z,0.00
2023-04-04T07:10:44.672Z,0.00
2023-04-04T07:13:11.532Z,0.10
2023-04-04T07:15:38.114Z,0.10
2023-04-04T07:18:04.807Z,0.10
2023-04-04T07:20:32.228Z,0.10
2023-04-04T07:22:59.008Z,0.20
2023-04-04T07:25:25.654Z,0.13
2023-04-04T07:28:02.306Z,0.50
2023-04-04T07:30:33.311Z,0.10
2023-04-04T07:33:00.553Z,0.17
2023-04-04T07:35:27.676Z,0.00
2023-04-04T07:37:54.822Z,0.00
2023-04-04T07:40:22.094Z,0.20
2023-04-04T07:42:51.934Z,0.10
2023-04-04T07:45:18.646Z,0.20
2023-04-04T07:47:46.169Z,0.20
2023-04-04T07:50:14.371Z,0.10
2023-04-04T07:52:41.792Z,2.70
2023-04-04T07:55:09.406Z,1.20
2023-04-04T07:57:39.575Z,2.85
2023-04-04T08:00:12.653Z,0.20
2023-04-04T08:02:39.634Z,0.20
2023-04-04T08:05:06.949Z,0.10
2023-04-04T08:07:33.762Z,0.30
2023-04-04T08:10:00.494Z,0.30
2023-04-04T08:12:27.163Z,0.30
2023-04-04T08:14:53.772Z,0.20
2023-04-04T08:17:21.111Z,0.10
2023-04-04T08:19:47.706Z,0.20
2023-04-04T08:22:14.589Z,0.30
2023-04-04T08:24:41.325Z,0.30
2023-04-04T08:27:08.109Z,0.40
2023-04-04T08:29:35.100Z,0.30
2023-04-04T08:32:01.882Z,0.30
2023-04-04T08:34:28.823Z,0.28
2023-04-04T08:36:55.819Z,0.25
2023-04-04T08:39:22.475Z,0.40
2023-04-04T08:42:10.855Z,0.30
2023-04-04T08:44:40.896Z,0.10
2023-04-04T08:47:09.622Z,0.30
2023-04-04T08:49:41.287Z,0.20
2023-04-04T08:52:10.249Z,0.50
2023-04-04T08:54:39.985Z,0.20
2023-04-04T08:57:08.439Z,0.50
2023-04-04T08:59:35.640Z,0.30
2023-04-04T09:02:43.031Z,0.30
2023-04-04T09:05:10.901Z,0.30
2023-04-04T09:07:39.124Z,0.20
2023-04-04T09:10:10.692Z,0.20
2023-04-04T09:12:43.395Z,0.30
2023-04-04T09:15:10.772Z,0.30
2023-04-04T09:17:37.608Z,0.20
2023-04-04T09:20:24.466Z,0.40
2023-04-04T09:22:51.120Z,0.30
2023-04-04T09:25:18.748Z,0.22
2023-04-04T09:27:45.806Z,0.20
2023-04-04T09:30:12.501Z,0.52
2023-04-04T09:32:39.146Z,0.70
2023-04-04T09:35:06.490Z,0.45
2023-04-04T09:37:33.457Z,0.50
2023-04-04T09:40:00.633Z,0.30
2023-04-04T09:42:27.390Z,0.52
2023-04-04T09:44:54.995Z,0.40
2023-04-04T09:47:31.954Z,0.30
2023-04-04T09:50:03.917Z,0.38
2023-04-04T09:52:36.829Z,0.30
2023-04-04T09:55:05.589Z,0.30
2023-04-04T09:57:37.870Z,0.40
2023-04-04T10:00:09.576Z,0.40
2023-04-04T10:02:47.021Z,0.30
2023-04-04T10:05:14.921Z,0.50
2023-04-04T10:07:43.695Z,0.40
2023-04-04T10:10:10.565Z,0.47
2023-04-04T10:12:38.503Z,0.50
2023-04-04T10:15:05.424Z,0.40
2023-04-04T10:17:37.522Z,0.30
2023-04-04T10:20:06.614Z,2.72
2023-04-04T10:22:34.215Z,0.30
2023-04-04T10:25:01.153Z,0.32
2023-04-04T10:27:28.100Z,0.32
2023-04-04T10:29:54.957Z,0.30
2023-04-04T10:32:38.322Z,0.30
2023-04-04T10:35:11.020Z,0.20
2023-04-04T10:37:45.805Z,0.20
2023-04-04T10:40:24.360Z,0.30
2023-04-04T10:42:51.645Z,0.30
2023-04-04T10:45:21.606Z,0.40
2023-04-04T10:47:49.042Z,0.30
2023-04-04T10:50:15.862Z,0.40
2023-04-04T10:52:44.568Z,0.40
2023-04-04T10:55:15.989Z,0.50
2023-04-04T10:57:50.919Z,0.50
2023-04-04T11:00:19.701Z,0.70
2023-04-04T11:02:58.028Z,16.55
2023-04-04T11:05:40.983Z,14.98
2023-04-04T11:08:10.792Z,1.20
2023-04-04T11:10:41.467Z,0.70
2023-04-04T11:13:18.969Z,0.47
2023-04-04T11:16:07.513Z,0.40
2023-04-04T11:18:43.951Z,0.50
2023-04-04T11:21:18.563Z,0.50
2023-04-04T11:23:48.632Z,0.50
2023-04-04T11:26:30.252Z,0.43
2023-04-04T11:28:58.707Z,0.70
2023-04-04T11:31:29.026Z,0.50
2023-04-04T11:33:59.274Z,0.40
2023-04-04T11:36:38.009Z,0.50
2023-04-04T11:39:06.237Z,0.88
2023-04-04T11:41:52.056Z,0.90
2023-04-04T11:44:20.941Z,2.55
2023-04-04T11:46:50.481Z,0.80
2023-04-04T11:49:18.726Z,1.55
2023-04-04T11:51:45.949Z,0.82
2023-04-04T11:54:17.018Z,0.63
2023-04-04T11:56:45.520Z,0.65
2023-04-04T11:59:13.075Z,0.95
2023-04-04T12:01:41.036Z,0.68
2023-04-04T12:04:08.077Z,0.70
2023-04-04T12:06:37.623Z,0.80
2023-04-04T12:09:05.658Z,0.55
2023-04-04T12:11:37.202Z,0.60
2023-04-04T12:14:03.787Z,0.75
2023-04-04T12:16:30.820Z,0.70
2023-04-04T12:19:01.956Z,0.70
2023-04-04T12:21:32.730Z,0.80
2023-04-04T12:23:59.734Z,0.90
2023-04-04T12:26:29.866Z,1.35
2023-04-04T12:28:58.249Z,5.40
2023-04-04T12:31:28.914Z,2.47
2023-04-04T12:33:55.684Z,1.33
2023-04-04T12:36:37.419Z,1.00
2023-04-04T12:39:14.080Z,1.17
2023-04-04T12:42:04.366Z,0.82
2023-04-04T12:44:31.879Z,0.75
2023-04-04T12:47:03.626Z,1.33
2023-04-04T12:49:33.025Z,1.05
2023-04-04T12:52:04.411Z,1.52
2023-04-04T12:54:32.930Z,1.30
2023-04-04T12:57:04.460Z,2.00
2023-04-04T12:59:37.209Z,1.90
2023-04-04T13:02:09.146Z,1.42
2023-04-04T13:04:35.967Z,1.48
2023-04-04T13:07:03.254Z,1.38
2023-04-04T13:09:30.157Z,2.10
2023-04-04T13:12:04.585Z,1.52
2023-04-04T13:14:55.841Z,2.25
2023-04-04T13:17:23.036Z,2.20
2023-04-04T13:19:49.858Z,3.22
2023-04-04T13:22:16.437Z,2.38
2023-04-04T13:24:43.032Z,1.58
2023-04-04T13:27:09.628Z,2.40
2023-04-04T13:29:36.473Z,3.28
2023-04-04T13:32:03.422Z,3.97
2023-04-04T13:34:31.417Z,3.88
2023-04-04T13:36:58.086Z,3.92
2023-04-04T13:39:25.177Z,4.55
2023-04-04T13:41:51.858Z,4.32
2023-04-04T13:44:18.499Z,8.48
2023-04-04T13:46:45.089Z,5.63
2023-04-04T13:49:11.672Z,3.05
2023-04-04T13:51:38.568Z,2.65
2023-04-04T13:54:05.140Z,3.28
2023-04-04T13:56:31.747Z,3.50
2023-04-04T13:58:58.520Z,2.88
2023-04-04T14:01:25.147Z,5.38
2023-04-04T14:03:51.819Z,4.80
2023-04-04T14:06:18.490Z,4.63
2023-04-04T14:08:46.584Z,4.13
2023-04-04T14:11:13.922Z,6.78
2023-04-04T14:13:40.585Z,7.85
2023-04-04T14:16:08.398Z,5.93
2023-04-04T14:18:35.141Z,5.45
2023-04-04T14:21:03.061Z,7.60
2023-04-04T14:23:33.071Z,8.20
2023-04-04T14:25:59.788Z,6.20
2023-04-04T14:28:26.752Z,7.32
2023-04-04T14:30:53.351Z,7.00
2023-04-04T14:33:19.960Z,6.00
2023-04-04T14:35:46.490Z,4.70
2023-04-04T14:38:13.002Z,5.10
2023-04-04T14:40:40.190Z,6.75
2023-04-04T14:43:07.944Z,4.95
2023-04-04T14:45:34.735Z,4.45
2023-04-04T14:48:01.542Z,5.93
2023-04-04T14:50:28.404Z,6.10
2023-04-04T14:52:56.745Z,7.20
2023-04-04T14:55:23.649Z,7.82
2023-04-04T15:00:21.119Z,6.38
2023-04-04T15:02:47.891Z,6.15
2023-04-04T15:05:17.869Z,6.20
2023-04-04T15:07:49.885Z,6.60
2023-04-04T15:10:16.574Z,6.68
2023-04-04T15:12:43.189Z,5.00
2023-04-04T15:15:10.858Z,5.63
2023-04-04T15:17:37.809Z,5.72
2023-04-04T15:20:04.854Z,4.65
2023-04-04T15:22:31.469Z,4.90
2023-04-04T15:24:58.038Z,5.10
2023-04-04T15:27:24.726Z,6.80
2023-04-04T15:29:52.111Z,6.20
2023-04-04T15:32:18.699Z,6.25
2023-04-04T15:34:45.460Z,5.00
2023-04-04T15:37:12.298Z,5.25
2023-04-04T15:39:49.655Z,5.00
2023-04-04T15:42:18.969Z,5.20
2023-04-04T15:44:45.556Z,4.78
2023-04-04T15:47:12.256Z,6.47
2023-04-04T15:49:38.990Z,7.20
2023-04-04T15:52:05.680Z,5.85
2023-04-04T15:54:32.315Z,6.82
2023-04-04T15:56:59.094Z,7.35
2023-04-04T15:59:26.452Z,6.05
2023-04-04T16:01:53.274Z,6.07
2023-04-04T16:04:19.913Z,6.07
2023-04-04T16:06:46.484Z,6.32
2023-04-04T16:09:13.036Z,7.78
2023-04-04T16:11:39.930Z,7.20
2023-04-04T16:14:09.270Z,6.97
2023-04-04T16:16:36.558Z,5.72
2023-04-04T16:19:03.185Z,8.15
2023-04-04T16:21:31.134Z,9.25
2023-04-04T16:23:57.957Z,7.53
2023-04-04T16:26:25.132Z,6.68
2023-04-04T16:28:51.800Z,6.78
2023-04-04T16:31:18.399Z,6.72
2023-04-04T16:33:45.038Z,6.60
2023-04-04T16:36:11.812Z,8.10
2023-04-04T16:38:38.519Z,7.47
2023-04-04T16:41:05.334Z,8.25
2023-04-04T16:43:31.901Z,5.90
2023-04-04T16:45:58.845Z,8.10
2023-04-04T16:48:25.471Z,6.18
2023-04-04T16:50:52.064Z,6.55
2023-04-04T16:53:18.670Z,7.00
2023-04-04T16:55:45.337Z,7.55
2023-04-04T16:58:11.884Z,6.63
2023-04-04T17:00:39.012Z,6.75
2023-04-04T17:03:06.090Z,6.97
2023-04-04T17:05:32.684Z,7.22
2023-04-04T17:07:59.226Z,7.70
2023-04-04T17:10:26.529Z,8.85
2023-04-04T17:12:53.138Z,8.80
2023-04-04T17:15:19.829Z,7.80
2023-04-04T17:17:46.926Z,9.50
2023-04-04T17:20:18.121Z,7.68
2023-04-04T17:22:46.363Z,7.55
2023-04-04T17:25:13.427Z,8.30
2023-04-04T17:27:40.123Z,8.88
2023-04-04T17:30:08.405Z,6.88
2023-04-04T17:32:35.223Z,8.57
2023-04-04T17:35:01.939Z,10.15
2023-04-04T17:37:29.146Z,8.10
2023-04-04T17:39:55.773Z,7.18
2023-04-04T17:42:22.381Z,9.30
2023-04-04T17:44:48.941Z,7.90
2023-04-04T17:47:15.512Z,9.95
2023-04-04T17:49:42.139Z,9.20
2023-04-04T17:52:08.887Z,10.30
2023-04-04T17:54:36.463Z,9.98
2023-04-04T17:57:03.598Z,8.35
2023-04-04T17:59:30.240Z,8.73
2023-04-04T18:01:57.183Z,6.72
2023-04-04T18:04:25.496Z,6.78
2023-04-04T18:06:52.407Z,7.60
2023-04-04T18:09:19.067Z,6.25
2023-04-04T18:11:45.766Z,7.68
2023-04-04T18:14:12.298Z,8.48
2023-04-04T18:16:41.067Z,9.25
2023-04-04T18:19:09.582Z,9.82
2023-04-04T18:21:37.123Z,8.75
2023-04-04T18:24:07.308Z,8.85
2023-04-04T18:26:34.198Z,9.63
2023-04-04T18:29:00.799Z,9.73
2023-04-04T18:31:27.466Z,9.13
2023-04-04T18:33:55.480Z,9.48
2023-04-04T18:36:22.280Z,10.38
2023-04-04T18:38:49.293Z,8.55
2023-04-04T18:41:17.401Z,8.93
2023-04-04T18:43:44.266Z,8.75
2023-04-04T18:46:10.872Z,7.10
2023-04-04T18:48:37.671Z,8.63
2023-04-04T18:51:04.522Z,9.70
2023-04-04T18:53:31.196Z,9.82
2023-04-04T18:55:58.367Z,10.48
2023-04-04T18:58:26.214Z,10.65
2023-04-04T19:00:55.733Z,6.82
2023-04-04T19:03:22.577Z,8.32
2023-04-04T19:05:49.927Z,8.80
2023-04-04T19:08:18.099Z,7.88
2023-04-04T19:10:51.131Z,8.27
2023-04-04T19:13:18.275Z,7.93
2023-04-04T19:15:44.869Z,8.90
2023-04-04T19:18:11.870Z,8.15
2023-04-04T19:20:42.018Z,10.88
2023-04-04T19:23:09.000Z,9.02
2023-04-04T19:25:35.708Z,8.80
2023-04-04T19:28:02.612Z,10.68
2023-04-04T19:30:33.631Z,8.40
2023-04-04T19:33:02.448Z,9.38
2023-04-04T19:35:59.310Z,9.85
2023-04-04T19:38:26.100Z,8.32
2023-04-04T19:41:08.995Z,6.65
2023-04-04T19:43:36.158Z,5.60
2023-04-04T19:46:10.555Z,7.43
2023-04-04T19:48:58.049Z,6.65
2023-04-04T19:51:24.682Z,8.10
2023-04-04T19:53:59.239Z,9.27
2023-04-04T19:56:27.817Z,7.97
2023-04-04T19:58:59.883Z,8.00
2023-04-04T20:01:29.344Z,7.85
2023-04-04T20:03:56.615Z,8.70
2023-04-04T20:06:28.385Z,9.40
2023-04-04T20:08:57.061Z,7.40
2023-04-04T20:11:32.415Z,7.50
2023-04-04T20:14:01.265Z,7.55
2023-04-04T20:16:29.500Z,8.73
2023-04-04T20:18:58.238Z,8.95
2023-04-04T20:21:31.574Z,7.68
2023-04-04T20:24:04.405Z,7.22
2023-04-04T20:26:40.116Z,6.55
2023-04-04T20:29:13.001Z,8.57
2023-04-04T20:31:45.375Z,5.90
2023-04-04T20:34:33.023Z,7.82
2023-04-04T20:37:01.614Z,7.68
2023-04-04T20:39:47.829Z,7.10
2023-04-04T20:42:32.144Z,4.78
2023-04-04T20:45:11.129Z,6.45
2023-04-04T20:47:53.868Z,6.20
2023-04-04T20:50:23.354Z,7.50
2023-04-04T20:53:00.713Z,5.90
2023-04-04T20:55:29.606Z,6.20
2023-04-04T20:58:07.008Z,7.47
2023-04-04T21:00:34.146Z,6.50
2023-04-04T21:03:07.394Z,6.80
2023-04-04T21:05:34.962Z,6.65
2023-04-04T21:08:03.039Z,5.53
2023-04-04T21:10:29.579Z,7.28
2023-04-04T21:13:03.374Z,5.93
2023-04-04T21:15:33.698Z,5.25
2023-04-04T21:18:03.744Z,5.85
2023-04-04T21:20:49.113Z,5.65
2023-04-04T21:23:24.754Z,6.50
2023-04-04T21:25:54.827Z,6.82
2023-04-04T21:28:28.785Z,6.07
2023-04-04T21:30:56.272Z,6.78
2023-04-04T21:33:23.234Z,7.07
2023-04-04T21:35:51.970Z,7.45
2023-04-04T21:38:32.821Z,6.53
2023-04-04T21:41:27.272Z,5.60
2023-04-04T21:43:56.027Z,6.40
2023-04-04T21:46:28.297Z,5.60
2023-04-04T21:48:55.672Z,5.00
2023-04-04T21:51:22.505Z,4.70
2023-04-04T21:53:50.268Z,5.45
2023-04-04T21:56:17.838Z,5.80
2023-04-04T21:58:44.583Z,5.30
2023-04-04T22:01:11.493Z,2.00
2023-04-04T22:03:38.466Z,4.53
2023-04-04T22:06:05.531Z,6.45
2023-04-04T22:08:32.518Z,6.63
2023-04-04T22:11:01.853Z,7.53
2023-04-04T22:13:35.294Z,7.53
2023-04-04T22:16:06.213Z,8.48
2023-04-04T22:18:35.421Z,6.50
2023-04-04T22:21:07.022Z,6.22
2023-04-04T22:23:37.178Z,7.07
2023-04-04T22:26:14.995Z,7.72
2023-04-04T22:28:42.457Z,6.60
2023-04-04T22:31:09.254Z,7.03
2023-04-04T22:33:35.823Z,7.63
2023-04-04T22:36:03.960Z,7.57
2023-04-04T22:38:30.630Z,5.53
2023-04-04T22:40:58.476Z,5.85
2023-04-04T22:43:28.646Z,6.72
2023-04-04T22:45:55.448Z,7.35
2023-04-04T22:48:23.094Z,8.00
2023-04-04T22:50:56.180Z,5.97
2023-04-04T22:53:26.726Z,7.40
2023-04-04T22:55:58.273Z,7.15
2023-04-04T22:58:24.985Z,7.30
2023-04-04T23:00:51.538Z,7.57
2023-04-04T23:03:18.216Z,7.45
2023-04-04T23:06:03.575Z,7.20
2023-04-04T23:08:30.159Z,7.80
2023-04-04T23:10:56.692Z,8.38
2023-04-04T23:13:23.578Z,7.20
2023-04-04T23:15:50.306Z,7.32
2023-04-04T23:18:17.603Z,7.30
2023-04-04T23:20:44.357Z,6.55
2023-04-04T23:23:10.989Z,6.45
2023-04-04T23:25:37.536Z,7.05
2023-04-04T23:28:04.198Z,6.47
2023-04-04T23:30:31.229Z,7.22
2023-04-04T23:32:57.870Z,7.40
2023-04-04T23:35:24.661Z,7.07
2023-04-04T23:37:51.336Z,6.93
2023-04-04T23:40:18.041Z,7.20
2023-04-04T23:42:44.633Z,6.80
2023-04-04T23:45:11.987Z,6.65
2023-04-04T23:47:38.832Z,7.72
2023-04-04T23:50:05.901Z,6.90
2023-04-04T23:52:32.642Z,7.45
2023-04-04T23:54:59.271Z,6.95
2023-04-04T23:57:25.902Z,7.32
2023-04-04T23:59:52.647Z,7.05
